Mary Esther, Florida
Current Conditions -  °F | °C
As of 9:56 AM on Thursday 30 Oct 2014 (Local Time) from KQBL Reporting Station
Clear Clear  
Wind Chill: 66°   Ceiling: Unl
Heat Index: 66°   Visibility: 10mi
Dew Point: 45°   Wind: 7mph
Humidity: 47%   Direction: NA
Pressure: 30.09"   Gusts: 14mph
Location:  30.41°N, 86.66°W
Report Text: KQBL 301456Z AUTO VRB06G12KT 10SM CLR 19/07 A3009 RMK AO2 SLP196 T01870071 51014
Loading
Personal Weather Stations






























Interactive Weather Map
Tropical Storm Tracking
New forecast layout! Learn more

10-Day Weather Forecast

Advertisements
Track Severe Weather on mobile